createdAt,value
2019-06-27T00:01:39.925Z,66.80
2019-06-27T00:04:07.482Z,67.24
2019-06-27T00:06:34.910Z,67.98
2019-06-27T00:09:02.518Z,67.08
2019-06-27T00:11:30.006Z,67.36
2019-06-27T00:13:57.896Z,68.69
2019-06-27T00:16:25.508Z,69.04
2019-06-27T00:18:53.096Z,69.41
2019-06-27T00:21:20.546Z,69.45
2019-06-27T00:23:48.170Z,69.40
2019-06-27T00:26:15.599Z,69.80
2019-06-27T00:28:43.022Z,70.18
2019-06-27T00:31:10.430Z,70.53
2019-06-27T00:33:37.846Z,70.78
2019-06-27T00:36:05.340Z,70.92
2019-06-27T00:38:32.864Z,71.20
2019-06-27T00:41:00.303Z,71.15
2019-06-27T00:43:27.746Z,71.25
2019-06-27T00:45:55.142Z,71.34
2019-06-27T00:48:22.621Z,71.36
2019-06-27T00:50:50.319Z,71.47
2019-06-27T00:53:18.086Z,71.66
2019-06-27T00:55:45.581Z,71.67
2019-06-27T00:58:13.739Z,71.85
2019-06-27T01:00:41.169Z,71.82
2019-06-27T01:03:08.619Z,71.95
2019-06-27T01:05:36.362Z,72.16
2019-06-27T01:08:03.870Z,72.19
2019-06-27T01:10:31.300Z,72.50
2019-06-27T01:12:58.729Z,72.57
2019-06-27T01:15:26.183Z,72.68
2019-06-27T01:17:53.616Z,72.55
2019-06-27T01:20:21.076Z,72.75
2019-06-27T01:22:48.884Z,73.00
2019-06-27T01:25:16.330Z,73.06
2019-06-27T01:27:43.776Z,72.98
2019-06-27T01:30:11.189Z,73.18
2019-06-27T01:32:38.863Z,73.58
2019-06-27T01:35:06.294Z,73.39
2019-06-27T01:37:33.765Z,73.28
2019-06-27T01:40:01.204Z,73.53
2019-06-27T01:42:28.667Z,73.85
2019-06-27T01:44:56.878Z,74.09
2019-06-27T01:47:25.140Z,73.88
2019-06-27T01:49:52.570Z,73.82
2019-06-27T01:52:20.023Z,74.12
2019-06-27T01:54:47.446Z,74.14
2019-06-27T01:57:15.188Z,74.25
2019-06-27T01:59:42.711Z,74.26
2019-06-27T02:02:10.175Z,74.56
2019-06-27T02:04:38.016Z,74.92
2019-06-27T02:07:05.700Z,75.34
2019-06-27T02:09:33.628Z,75.73
2019-06-27T02:12:00.736Z,75.89
2019-06-27T02:14:28.184Z,76.09
2019-06-27T02:16:55.885Z,76.05
2019-06-27T02:19:23.922Z,76.13
2019-06-27T02:21:51.374Z,76.31
2019-06-27T02:24:19.416Z,76.51
2019-06-27T02:26:47.123Z,77.05
2019-06-27T02:29:14.555Z,77.70
2019-06-27T02:31:42.032Z,78.31
2019-06-27T02:34:09.504Z,78.27
2019-06-27T02:36:37.167Z,77.87
2019-06-27T02:39:04.590Z,77.53
2019-06-27T02:41:32.295Z,77.45
2019-06-27T02:43:59.730Z,77.48
2019-06-27T02:46:27.420Z,77.34
2019-06-27T02:48:54.856Z,77.17
2019-06-27T02:51:22.319Z,77.02
2019-06-27T02:53:49.756Z,76.75
2019-06-27T02:56:17.405Z,76.62
2019-06-27T02:58:45.560Z,76.74
2019-06-27T03:01:12.981Z,76.93
2019-06-27T03:03:41.735Z,76.65
2019-06-27T03:06:09.211Z,76.71
2019-06-27T03:08:36.668Z,76.94
2019-06-27T03:11:04.849Z,77.18
2019-06-27T03:13:32.289Z,77.05
2019-06-27T03:16:00.035Z,76.87
2019-06-27T03:18:27.615Z,76.91
2019-06-27T03:20:55.072Z,77.16
2019-06-27T03:23:22.500Z,77.30
2019-06-27T03:25:50.359Z,77.32
2019-06-27T03:28:17.847Z,77.31
2019-06-27T03:30:45.533Z,77.47
2019-06-27T03:33:12.964Z,77.60
2019-06-27T03:35:40.446Z,77.75
2019-06-27T03:38:07.816Z,77.98
2019-06-27T03:40:35.306Z,77.88
2019-06-27T03:43:02.759Z,77.35
2019-06-27T03:45:30.675Z,77.15
2019-06-27T03:47:58.320Z,77.16
2019-06-27T03:50:25.997Z,77.36
2019-06-27T03:52:53.423Z,77.48
2019-06-27T03:55:20.953Z,77.51
2019-06-27T03:57:48.373Z,77.47
2019-06-27T04:00:20.493Z,77.25
2019-06-27T04:02:47.923Z,77.19
2019-06-27T04:09:50.573Z,76.76
2019-06-27T04:12:18.022Z,77.05
2019-06-27T04:14:45.468Z,76.97
2019-06-27T04:17:12.918Z,76.89
2019-06-27T04:19:40.376Z,76.65
2019-06-27T04:22:08.295Z,76.42
2019-06-27T04:24:35.715Z,76.32
2019-06-27T04:27:03.317Z,76.34
2019-06-27T04:29:33.903Z,75.95
2019-06-27T04:31:58.243Z,75.71
2019-06-27T04:34:25.673Z,75.70
2019-06-27T04:36:53.798Z,75.61
2019-06-27T04:39:21.865Z,75.40
2019-06-27T04:41:50.249Z,75.27
2019-06-27T04:44:17.694Z,74.44
2019-06-27T04:46:45.421Z,73.97
2019-06-27T04:49:13.743Z,73.69
2019-06-27T04:51:40.347Z,73.60
2019-06-27T04:54:07.853Z,73.11
2019-06-27T04:56:35.338Z,72.62
2019-06-27T04:59:02.812Z,72.06
2019-06-27T05:01:30.589Z,70.55
2019-06-27T05:03:58.138Z,70.16
2019-06-27T05:06:26.520Z,69.23
2019-06-27T05:08:53.932Z,67.54
2019-06-27T05:11:22.058Z,67.29
2019-06-27T05:13:49.479Z,67.17
2019-06-27T05:16:17.070Z,67.00
2019-06-27T05:18:44.516Z,67.18
2019-06-27T05:21:12.284Z,67.25
2019-06-27T05:23:39.927Z,66.33
2019-06-27T05:26:07.547Z,66.06
2019-06-27T05:28:35.083Z,66.18
2019-06-27T05:31:02.550Z,65.72
2019-06-27T05:33:29.998Z,65.47
2019-06-27T05:35:57.916Z,65.46
2019-06-27T05:38:25.442Z,65.04
2019-06-27T05:40:52.930Z,64.38
2019-06-27T05:43:20.326Z,63.96
2019-06-27T05:45:48.174Z,64.42
2019-06-27T05:48:15.592Z,64.99
2019-06-27T05:50:43.098Z,65.12
2019-06-27T05:53:10.578Z,65.12
2019-06-27T05:55:38.519Z,64.78
2019-06-27T05:58:06.010Z,64.23
2019-06-27T06:00:33.555Z,63.72
2019-06-27T06:03:01.007Z,63.58
2019-06-27T06:05:28.553Z,63.25
2019-06-27T06:07:56.088Z,63.20
2019-06-27T06:10:24.358Z,63.42
2019-06-27T06:12:51.777Z,63.09
2019-06-27T06:15:19.754Z,62.75
2019-06-27T06:17:46.677Z,62.80
2019-06-27T06:20:14.367Z,62.98
2019-06-27T06:22:41.776Z,62.75
2019-06-27T06:25:09.645Z,62.25
2019-06-27T06:27:37.102Z,61.79
2019-06-27T06:30:04.561Z,61.58
2019-06-27T06:32:32.042Z,61.55
2019-06-27T06:35:00.237Z,61.47
2019-06-27T06:37:27.650Z,60.90
2019-06-27T06:39:55.161Z,60.86
2019-06-27T06:42:22.604Z,60.62
2019-06-27T06:44:50.179Z,60.36
2019-06-27T06:47:17.893Z,60.36
2019-06-27T06:49:45.482Z,59.96
2019-06-27T06:52:12.933Z,59.69
2019-06-27T06:54:40.572Z,59.51
2019-06-27T06:57:08.006Z,59.07
2019-06-27T06:59:36.340Z,59.10
2019-06-27T07:02:03.760Z,58.70
2019-06-27T07:04:31.545Z,58.94
2019-06-27T07:06:59.166Z,58.33
2019-06-27T07:09:26.775Z,57.35
2019-06-27T07:11:54.353Z,57.08
2019-06-27T07:14:22.461Z,57.49
2019-06-27T07:16:49.885Z,57.06
2019-06-27T07:19:17.627Z,56.06
2019-06-27T07:21:45.081Z,54.88
2019-06-27T07:24:12.663Z,54.13
2019-06-27T07:26:40.227Z,53.46
2019-06-27T07:29:08.435Z,53.09
2019-06-27T07:31:35.851Z,52.50
2019-06-27T07:34:03.337Z,51.90
2019-06-27T07:36:30.776Z,52.02
2019-06-27T07:38:58.200Z,52.04
2019-06-27T07:41:25.742Z,51.78
2019-06-27T07:43:53.633Z,50.36
2019-06-27T07:46:25.522Z,49.15
2019-06-27T07:48:50.081Z,48.51
2019-06-27T07:51:17.066Z,48.27
2019-06-27T07:53:44.717Z,47.73
2019-06-27T07:56:12.138Z,47.15
2019-06-27T07:58:39.662Z,47.50
2019-06-27T08:01:07.121Z,46.77
2019-06-27T08:03:35.010Z,45.09
2019-06-27T08:06:02.569Z,43.60
2019-06-27T08:08:31.085Z,42.12
2019-06-27T08:10:58.607Z,41.52
2019-06-27T08:13:26.039Z,40.69
2019-06-27T08:15:53.617Z,41.43
2019-06-27T08:18:21.093Z,41.23
2019-06-27T08:20:48.514Z,40.98
2019-06-27T08:23:16.543Z,42.02
2019-06-27T08:25:43.982Z,42.07
2019-06-27T08:28:11.431Z,42.20
2019-06-27T08:30:38.839Z,41.20
2019-06-27T08:33:06.508Z,42.43
2019-06-27T08:35:33.989Z,43.38
2019-06-27T08:38:01.485Z,42.80
2019-06-27T08:40:28.914Z,42.42
2019-06-27T08:42:56.476Z,41.26
2019-06-27T08:45:24.666Z,41.15
2019-06-27T08:47:52.201Z,40.21
2019-06-27T08:50:19.746Z,38.20
2019-06-27T08:52:47.197Z,37.75
2019-06-27T08:55:14.693Z,37.34
2019-06-27T08:57:42.323Z,37.77
2019-06-27T09:00:10.599Z,38.17
2019-06-27T09:02:38.079Z,38.50
2019-06-27T09:05:06.681Z,38.63
2019-06-27T09:07:34.151Z,38.87
2019-06-27T09:10:01.604Z,38.35
2019-06-27T09:12:29.658Z,38.10
2019-06-27T09:14:57.139Z,38.28
2019-06-27T09:17:24.690Z,37.84
2019-06-27T09:19:52.118Z,38.17
2019-06-27T09:22:19.717Z,38.20
2019-06-27T09:24:47.249Z,38.43
2019-06-27T09:27:16.146Z,38.32
2019-06-27T09:29:43.636Z,38.34
2019-06-27T09:32:24.094Z,37.65
2019-06-27T09:34:39.952Z,37.27
2019-06-27T09:37:07.353Z,37.59
2019-06-27T09:39:34.815Z,37.47
2019-06-27T09:42:02.279Z,37.27
2019-06-27T09:44:30.078Z,36.94
2019-06-27T09:46:57.864Z,36.08
2019-06-27T09:49:25.413Z,35.60
2019-06-27T09:51:52.908Z,34.74
2019-06-27T09:54:20.318Z,34.78
2019-06-27T09:56:49.267Z,34.31
2019-06-27T09:59:16.910Z,33.70
2019-06-27T10:01:44.741Z,34.33
2019-06-27T10:04:12.231Z,34.61
2019-06-27T10:06:39.823Z,34.74
2019-06-27T10:09:07.419Z,33.75
2019-06-27T10:11:34.926Z,32.90
2019-06-27T10:14:02.395Z,33.82
2019-06-27T10:16:29.945Z,34.00
2019-06-27T10:18:57.383Z,34.39
2019-06-27T10:21:25.129Z,33.58
2019-06-27T10:23:52.565Z,33.90
2019-06-27T10:26:20.342Z,34.24
2019-06-27T10:28:47.874Z,34.02
2019-06-27T10:31:16.289Z,33.84
2019-06-27T10:33:43.904Z,33.61
2019-06-27T10:36:11.274Z,33.58
2019-06-27T10:38:38.706Z,34.44
2019-06-27T10:41:06.564Z,34.22
2019-06-27T10:43:33.983Z,33.03
2019-06-27T10:46:02.279Z,32.26
2019-06-27T10:48:29.691Z,31.81
2019-06-27T10:50:57.385Z,31.77
2019-06-27T10:53:24.868Z,31.56
2019-06-27T10:55:52.736Z,32.10
2019-06-27T10:58:20.210Z,32.02
2019-06-27T11:00:47.885Z,31.42
2019-06-27T11:03:16.519Z,31.16
2019-06-27T11:05:43.051Z,30.69
2019-06-27T11:08:11.220Z,30.98
2019-06-27T11:10:38.699Z,31.10
2019-06-27T11:13:06.149Z,31.08
2019-06-27T11:15:33.726Z,31.41
2019-06-27T11:18:01.660Z,31.63
2019-06-27T11:20:29.233Z,31.98
2019-06-27T11:22:56.878Z,32.22
2019-06-27T11:25:24.450Z,32.23
2019-06-27T11:27:51.872Z,32.43
2019-06-27T11:30:19.575Z,32.71
2019-06-27T11:32:47.154Z,33.18
2019-06-27T11:35:15.148Z,32.83
2019-06-27T11:37:42.814Z,32.32
2019-06-27T11:40:12.303Z,32.34
2019-06-27T11:42:37.807Z,31.69
2019-06-27T11:45:05.270Z,32.27
2019-06-27T11:47:34.523Z,32.21
2019-06-27T11:50:00.882Z,32.05
2019-06-27T11:52:28.401Z,32.01
2019-06-27T11:54:55.839Z,31.70
2019-06-27T11:57:23.397Z,31.52
2019-06-27T11:59:51.103Z,31.08
2019-06-27T12:02:18.665Z,31.33
2019-06-27T12:04:46.380Z,31.92
2019-06-27T12:07:13.800Z,32.42
2019-06-27T12:09:41.386Z,32.95
2019-06-27T12:12:08.834Z,33.27
2019-06-27T12:14:36.271Z,34.51
2019-06-27T12:17:03.939Z,34.80
2019-06-27T12:19:31.437Z,34.42
2019-06-27T12:21:58.856Z,34.61
2019-06-27T12:24:27.161Z,35.13
2019-06-27T12:26:54.767Z,35.07
2019-06-27T12:29:22.351Z,35.08
2019-06-27T12:31:51.776Z,34.88
2019-06-27T12:34:17.421Z,34.68
2019-06-27T12:36:44.899Z,34.73
2019-06-27T12:39:12.484Z,34.43
2019-06-27T12:41:40.074Z,34.09
2019-06-27T12:44:07.453Z,34.02
2019-06-27T12:46:34.915Z,33.66
2019-06-27T12:49:02.523Z,33.46
2019-06-27T12:51:29.969Z,33.06
2019-06-27T12:53:57.630Z,33.10
2019-06-27T12:56:25.184Z,33.05
2019-06-27T12:58:53.005Z,32.91
2019-06-27T13:01:20.467Z,33.11
2019-06-27T13:03:47.982Z,32.90
2019-06-27T13:06:15.427Z,33.06
2019-06-27T13:08:42.930Z,33.10
2019-06-27T13:11:10.452Z,33.40
2019-06-27T13:13:38.055Z,33.33
2019-06-27T13:16:05.489Z,33.18
2019-06-27T13:18:33.313Z,32.56
2019-06-27T13:21:00.734Z,32.30
2019-06-27T13:23:28.275Z,32.86
2019-06-27T13:25:55.859Z,33.22
2019-06-27T13:28:24.173Z,33.22
2019-06-27T13:30:51.663Z,33.42
2019-06-27T13:33:19.220Z,34.15
2019-06-27T13:35:49.113Z,34.45
2019-06-27T13:38:14.486Z,34.18
2019-06-27T13:40:41.979Z,34.19
2019-06-27T13:43:09.481Z,34.41
2019-06-27T13:45:36.943Z,34.26
2019-06-27T13:48:04.507Z,34.48
2019-06-27T13:50:31.915Z,34.48
2019-06-27T13:52:59.578Z,34.57
2019-06-27T13:55:27.049Z,34.35
2019-06-27T13:57:57.519Z,34.54
2019-06-27T14:00:43.152Z,34.36
2019-06-27T14:03:10.603Z,34.73
2019-06-27T14:05:38.034Z,34.51
2019-06-27T14:08:05.436Z,34.59
2019-06-27T14:10:32.915Z,34.67
2019-06-27T14:13:00.635Z,34.85
2019-06-27T14:15:28.165Z,35.01
2019-06-27T14:17:55.742Z,34.74
2019-06-27T14:20:24.031Z,34.98
2019-06-27T14:22:51.443Z,34.98
2019-06-27T14:25:18.888Z,34.56
2019-06-27T14:27:46.311Z,33.48
2019-06-27T14:30:13.722Z,32.55
2019-06-27T14:32:41.320Z,31.41
2019-06-27T14:35:15.146Z,32.88
2019-06-27T14:37:36.666Z,32.31
2019-06-27T14:40:05.921Z,32.80
2019-06-27T14:42:34.219Z,31.22
2019-06-27T14:45:01.765Z,30.67
2019-06-27T14:47:29.339Z,29.53
2019-06-27T14:49:56.774Z,29.72
2019-06-27T14:52:24.677Z,29.26
2019-06-27T14:54:52.126Z,29.71
2019-06-27T14:57:20.040Z,31.72
2019-06-27T14:59:47.439Z,33.53
2019-06-27T15:02:15.528Z,34.75
2019-06-27T15:04:43.007Z,35.90
2019-06-27T15:07:11.269Z,36.50
2019-06-27T15:09:38.803Z,36.27
2019-06-27T15:12:07.045Z,35.71
2019-06-27T15:14:34.924Z,36.53
2019-06-27T15:17:02.420Z,36.54
2019-06-27T15:19:29.879Z,36.42
2019-06-27T15:21:57.474Z,36.00
2019-06-27T15:24:25.013Z,35.41
2019-06-27T15:26:52.784Z,34.79
2019-06-27T15:29:20.316Z,34.32
2019-06-27T15:31:48.079Z,33.89
2019-06-27T15:34:15.503Z,33.18
2019-06-27T15:36:44.187Z,32.40
2019-06-27T15:39:12.163Z,32.17
2019-06-27T15:41:39.336Z,31.78
2019-06-27T15:44:06.751Z,31.62
2019-06-27T15:46:34.209Z,31.23
2019-06-27T15:49:01.643Z,30.92
2019-06-27T15:51:29.388Z,30.54
2019-06-27T15:53:56.903Z,30.49
2019-06-27T15:56:25.162Z,30.31
2019-06-27T15:58:52.712Z,30.40
2019-06-27T16:01:20.299Z,30.72
2019-06-27T16:03:47.786Z,30.77
2019-06-27T16:06:15.333Z,31.24
2019-06-27T16:08:42.686Z,30.56
2019-06-27T16:11:10.328Z,29.74
2019-06-27T16:13:37.759Z,30.35
2019-06-27T16:16:05.200Z,30.92
2019-06-27T16:18:32.612Z,31.57
2019-06-27T16:21:00.896Z,31.75
2019-06-27T16:23:28.323Z,31.76
2019-06-27T16:25:56.107Z,32.08
2019-06-27T16:28:26.785Z,32.65
2019-06-27T16:30:51.289Z,32.77
2019-06-27T16:33:18.844Z,33.58
2019-06-27T16:35:46.524Z,35.06
2019-06-27T16:38:13.987Z,35.67
2019-06-27T16:40:41.612Z,36.14
2019-06-27T16:43:09.247Z,36.19
2019-06-27T16:45:40.299Z,35.93
2019-06-27T16:48:04.755Z,36.25
2019-06-27T16:50:32.299Z,36.28
2019-06-27T16:52:59.772Z,37.10
2019-06-27T16:55:27.379Z,37.47
2019-06-27T16:57:54.841Z,38.52
2019-06-27T17:00:22.515Z,38.39
2019-06-27T17:02:50.073Z,38.95
2019-06-27T17:05:18.257Z,38.46
2019-06-27T17:07:45.911Z,38.70
2019-06-27T17:10:14.191Z,38.49
2019-06-27T17:12:41.774Z,39.44
2019-06-27T17:15:09.376Z,39.66
2019-06-27T17:17:36.871Z,37.63
2019-06-27T17:20:06.317Z,37.45
2019-06-27T17:22:33.922Z,37.33
2019-06-27T17:25:01.485Z,36.97
2019-06-27T17:27:28.965Z,36.10
2019-06-27T17:29:56.468Z,35.38
2019-06-27T17:32:24.226Z,34.19
2019-06-27T17:34:52.027Z,34.26
2019-06-27T17:37:19.478Z,34.45
2019-06-27T17:39:46.952Z,34.41
2019-06-27T17:42:14.652Z,35.16
2019-06-27T17:44:42.662Z,34.86
2019-06-27T17:47:10.995Z,34.58
2019-06-27T17:49:38.392Z,34.46
2019-06-27T17:52:05.845Z,35.46
2019-06-27T17:54:33.719Z,35.47
2019-06-27T17:57:01.170Z,35.70
2019-06-27T17:59:28.622Z,35.74
2019-06-27T18:01:56.114Z,34.85
2019-06-27T18:04:23.547Z,35.18
2019-06-27T18:06:51.813Z,35.39
2019-06-27T18:09:19.269Z,34.97
2019-06-27T18:11:46.702Z,34.50
2019-06-27T18:14:14.376Z,34.51
2019-06-27T18:16:41.833Z,34.18
2019-06-27T18:19:09.562Z,33.81
2019-06-27T18:21:37.011Z,34.20
2019-06-27T18:24:04.490Z,33.92
2019-06-27T18:26:32.093Z,33.94
2019-06-27T18:29:00.055Z,34.06
2019-06-27T18:31:27.495Z,33.87
2019-06-27T18:33:55.263Z,34.08
2019-06-27T18:36:22.737Z,33.99
2019-06-27T18:38:50.522Z,33.87
2019-06-27T18:41:17.940Z,34.04
2019-06-27T18:43:45.546Z,34.95
2019-06-27T18:46:13.046Z,35.46
2019-06-27T18:48:40.648Z,35.82
2019-06-27T18:51:08.136Z,36.11
2019-06-27T18:53:35.906Z,36.27
2019-06-27T18:56:03.341Z,36.60
2019-06-27T18:58:31.503Z,37.23
2019-06-27T19:00:58.952Z,38.13
2019-06-27T19:03:26.579Z,38.37
2019-06-27T19:05:54.023Z,39.16
2019-06-27T19:08:21.422Z,41.17
2019-06-27T19:10:48.944Z,42.66
2019-06-27T19:13:16.434Z,43.26
2019-06-27T19:15:43.864Z,43.51
2019-06-27T19:18:16.801Z,43.46
2019-06-27T19:20:45.008Z,42.98
2019-06-27T19:23:26.894Z,42.72
2019-06-27T19:25:54.353Z,42.62
2019-06-27T19:28:21.839Z,44.07
2019-06-27T19:30:49.379Z,45.50
2019-06-27T19:33:16.835Z,46.32
2019-06-27T19:35:44.247Z,46.61
2019-06-27T19:38:11.689Z,47.00
2019-06-27T19:40:39.131Z,47.47
2019-06-27T19:43:06.852Z,48.18
2019-06-27T19:45:34.298Z,48.79
2019-06-27T19:48:01.958Z,49.02
2019-06-27T19:50:29.416Z,49.54
2019-06-27T19:52:56.830Z,49.76
2019-06-27T19:55:24.252Z,50.28
2019-06-27T19:57:52.856Z,50.66
2019-06-27T20:00:20.400Z,51.02
2019-06-27T20:02:48.120Z,51.54
2019-06-27T20:05:15.547Z,51.87
2019-06-27T20:07:43.524Z,51.87
2019-06-27T20:10:11.971Z,52.38
2019-06-27T20:12:38.782Z,52.77
2019-06-27T20:15:06.540Z,52.85
2019-06-27T20:17:34.133Z,52.64
2019-06-27T20:20:01.538Z,52.62
2019-06-27T20:22:29.187Z,53.14
2019-06-27T20:24:57.089Z,53.31
2019-06-27T20:27:24.723Z,53.19
2019-06-27T20:29:52.138Z,53.34
2019-06-27T20:32:19.592Z,53.78
2019-06-27T20:34:46.991Z,54.42
2019-06-27T20:37:14.518Z,54.57
2019-06-27T20:39:41.934Z,54.60
2019-06-27T20:42:09.920Z,55.04
2019-06-27T20:44:37.393Z,55.88
2019-06-27T20:47:04.801Z,56.73
2019-06-27T20:49:32.246Z,57.28
2019-06-27T20:52:00.151Z,57.79
2019-06-27T20:54:27.607Z,58.19
2019-06-27T20:56:55.270Z,58.05
2019-06-27T20:59:22.678Z,57.48
2019-06-27T21:01:50.221Z,57.16
2019-06-27T21:04:17.636Z,56.94
2019-06-27T21:06:45.099Z,56.92
2019-06-27T21:09:12.506Z,57.16
2019-06-27T21:11:40.487Z,57.51
2019-06-27T21:14:07.915Z,57.97
2019-06-27T21:16:35.702Z,58.67
2019-06-27T21:19:03.199Z,59.14
2019-06-27T21:21:31.173Z,60.06
2019-06-27T21:23:58.603Z,60.79
2019-06-27T21:26:26.023Z,61.79
2019-06-27T21:28:53.446Z,62.37
2019-06-27T21:31:20.978Z,62.71
2019-06-27T21:33:48.614Z,63.04
2019-06-27T21:36:16.247Z,63.10
2019-06-27T21:38:43.695Z,63.40
2019-06-27T21:41:11.123Z,63.48
2019-06-27T21:43:38.079Z,63.67
2019-06-27T21:46:05.053Z,64.04
2019-06-27T21:48:32.042Z,63.97
2019-06-27T21:50:59.117Z,64.31
2019-06-27T21:53:26.108Z,64.31
2019-06-27T21:55:53.623Z,64.51
2019-06-27T21:58:20.590Z,64.73
2019-06-27T22:00:47.598Z,64.62
2019-06-27T22:03:14.584Z,64.44
2019-06-27T22:05:41.618Z,64.59
2019-06-27T22:08:08.607Z,64.51
2019-06-27T22:10:35.560Z,64.11
2019-06-27T22:13:02.575Z,63.94
2019-06-27T22:15:29.583Z,63.87
2019-06-27T22:17:56.696Z,64.29
2019-06-27T22:20:23.687Z,64.54
2019-06-27T22:22:50.739Z,64.59
2019-06-27T22:25:17.717Z,64.62
2019-06-27T22:27:45.601Z,64.95
2019-06-27T22:30:12.701Z,64.85
2019-06-27T22:32:39.637Z,64.87
2019-06-27T22:35:06.662Z,65.13
2019-06-27T22:37:33.263Z,65.19
2019-06-27T22:40:06.049Z,65.03
2019-06-27T22:42:39.126Z,64.82
2019-06-27T22:45:11.743Z,64.62
2019-06-27T22:47:44.386Z,64.83
2019-06-27T22:50:17.063Z,64.56
2019-06-27T22:55:37.880Z,64.31
2019-06-27T22:58:04.908Z,64.20
2019-06-27T23:00:31.987Z,64.60
2019-06-27T23:02:58.959Z,65.20
2019-06-27T23:05:26.004Z,65.39
2019-06-27T23:07:52.954Z,65.41
2019-06-27T23:10:19.947Z,65.60
2019-06-27T23:12:46.898Z,65.47
2019-06-27T23:15:13.873Z,65.20
2019-06-27T23:17:41.912Z,65.07
2019-06-27T23:20:09.707Z,64.88
2019-06-27T23:22:36.656Z,64.55
2019-06-27T23:25:03.612Z,64.68
2019-06-27T23:27:30.628Z,64.86
2019-06-27T23:29:57.761Z,64.46
2019-06-27T23:32:24.693Z,64.19
2019-06-27T23:34:51.711Z,63.75
2019-06-27T23:37:18.706Z,63.29
2019-06-27T23:39:45.677Z,63.16
2019-06-27T23:42:12.809Z,63.44
2019-06-27T23:44:39.754Z,64.25
2019-06-27T23:47:07.430Z,64.98
2019-06-27T23:49:34.782Z,65.10
2019-06-27T23:52:01.777Z,65.55
2019-06-27T23:54:28.697Z,65.30
2019-06-27T23:56:55.695Z,65.08
2019-06-27T23:59:22.675Z,64.98
